createdAt,value
2024-02-19T00:02:14.613Z,28.10
2024-02-19T00:04:46.709Z,33.67
2024-02-19T00:07:19.486Z,36.67
2024-02-19T00:09:50.423Z,29.98
2024-02-19T00:12:20.899Z,29.25
2024-02-19T00:14:51.352Z,28.23
2024-02-19T00:17:21.900Z,36.10
2024-02-19T00:19:54.119Z,31.42
2024-02-19T00:22:24.524Z,30.95
2024-02-19T00:24:55.159Z,26.85
2024-02-19T00:27:25.532Z,34.08
2024-02-19T00:29:55.977Z,33.22
2024-02-19T00:32:26.409Z,27.35
2024-02-19T00:34:58.395Z,28.50
2024-02-19T00:37:28.570Z,35.33
2024-02-19T00:39:59.689Z,31.95
2024-02-19T00:42:30.376Z,34.78
2024-02-19T00:45:00.999Z,27.83
2024-02-19T00:47:31.167Z,36.17
2024-02-19T00:50:03.227Z,31.42
2024-02-19T00:52:33.526Z,36.88
2024-02-19T00:55:04.200Z,37.30
2024-02-19T00:57:34.686Z,31.90
2024-02-19T01:00:07.896Z,38.10
2024-02-19T01:02:38.212Z,30.73
2024-02-19T01:05:10.940Z,39.40
2024-02-19T01:07:41.137Z,36.00
2024-02-19T01:10:12.283Z,32.92
2024-02-19T01:12:42.551Z,29.52
2024-02-19T01:15:13.292Z,31.52
2024-02-19T01:17:45.326Z,32.60
2024-02-19T01:20:17.633Z,33.45
2024-02-19T01:22:47.825Z,28.50
2024-02-19T01:25:18.439Z,30.45
2024-02-19T01:27:48.783Z,37.83
2024-02-19T01:30:19.697Z,33.47
2024-02-19T01:32:49.966Z,34.92
2024-02-19T01:35:23.594Z,28.05
2024-02-19T01:37:53.994Z,24.10
2024-02-19T01:40:24.723Z,30.92
2024-02-19T01:43:06.305Z,26.13
2024-02-19T01:45:36.859Z,27.88
2024-02-19T01:48:09.465Z,33.85
2024-02-19T01:50:41.708Z,26.73
2024-02-19T01:53:14.433Z,32.42
2024-02-19T01:55:46.784Z,23.35
2024-02-19T01:58:17.791Z,27.25
2024-02-19T02:00:52.700Z,31.17
2024-02-19T02:03:25.260Z,34.22
2024-02-19T02:05:57.575Z,29.42
2024-02-19T02:08:27.955Z,30.58
2024-02-19T02:10:58.558Z,29.35
2024-02-19T02:13:28.926Z,31.13
2024-02-19T02:15:59.929Z,28.27
2024-02-19T02:18:31.393Z,24.95
2024-02-19T02:21:04.005Z,31.88
2024-02-19T02:23:35.467Z,27.42
2024-02-19T02:26:07.356Z,25.40
2024-02-19T02:28:39.188Z,27.42
2024-02-19T02:31:10.014Z,22.75
2024-02-19T02:33:40.935Z,28.67
2024-02-19T02:36:14.172Z,24.25
2024-02-19T02:38:47.458Z,26.30
2024-02-19T02:41:18.833Z,26.13
2024-02-19T02:43:51.935Z,23.17
2024-02-19T02:46:23.202Z,28.75
2024-02-19T02:48:54.156Z,32.88
2024-02-19T02:51:29.265Z,22.25
2024-02-19T02:53:59.749Z,27.67
2024-02-19T02:56:35.296Z,22.67
2024-02-19T02:59:08.356Z,26.70
2024-02-19T03:01:41.871Z,24.57
2024-02-19T03:04:12.908Z,28.08
2024-02-19T03:06:43.589Z,23.40
2024-02-19T03:09:13.926Z,24.83
2024-02-19T03:11:44.865Z,23.10
2024-02-19T03:14:18.049Z,23.13
2024-02-19T03:16:48.514Z,27.90
2024-02-19T03:19:20.910Z,25.00
2024-02-19T03:21:52.261Z,24.95
2024-02-19T03:24:23.065Z,23.30
2024-02-19T03:26:55.075Z,24.98
2024-02-19T03:29:27.676Z,26.52
2024-02-19T03:31:58.739Z,24.90
2024-02-19T03:34:29.203Z,24.20
2024-02-19T03:36:59.941Z,28.77
2024-02-19T03:39:30.400Z,28.27
2024-02-19T03:42:02.200Z,25.40
2024-02-19T03:44:34.657Z,22.98
2024-02-19T03:47:06.633Z,26.48
2024-02-19T03:49:36.970Z,26.02
2024-02-19T03:52:09.314Z,27.70
2024-02-19T03:54:40.986Z,19.03
2024-02-19T03:57:12.975Z,25.73
2024-02-19T03:59:44.626Z,24.30
2024-02-19T04:02:15.303Z,29.88
2024-02-19T04:04:45.742Z,22.63
2024-02-19T04:07:16.766Z,28.75
2024-02-19T04:09:47.014Z,28.85
2024-02-19T04:12:17.618Z,26.65
2024-02-19T04:14:49.389Z,22.35
2024-02-19T04:17:20.091Z,28.75
2024-02-19T04:19:50.326Z,32.88
2024-02-19T04:22:21.056Z,27.30
2024-02-19T04:24:51.360Z,22.73
2024-02-19T04:27:21.925Z,24.60
2024-02-19T04:29:53.450Z,29.08
2024-02-19T04:32:24.147Z,23.13
2024-02-19T04:34:55.898Z,26.67
2024-02-19T04:37:27.423Z,29.98
2024-02-19T04:39:57.788Z,25.58
2024-02-19T04:42:28.382Z,28.27
2024-02-19T04:44:59.893Z,24.90
2024-02-19T04:47:30.502Z,21.15
2024-02-19T04:50:01.088Z,25.42
2024-02-19T04:52:32.242Z,23.75
2024-02-19T04:55:02.552Z,25.48
2024-02-19T04:57:33.307Z,26.00
2024-02-19T05:00:05.627Z,29.08
2024-02-19T05:02:36.285Z,29.70
2024-02-19T05:05:07.571Z,30.20
2024-02-19T05:07:38.364Z,25.95
2024-02-19T05:10:10.123Z,30.35
2024-02-19T05:12:41.680Z,28.50
2024-02-19T05:15:13.556Z,27.40
2024-02-19T05:17:44.312Z,27.15
2024-02-19T05:20:14.922Z,27.40
2024-02-19T05:22:45.525Z,26.75
2024-02-19T05:25:15.701Z,25.88
2024-02-19T05:27:46.558Z,27.80
2024-02-19T05:30:19.869Z,23.00
2024-02-19T05:32:50.521Z,22.38
2024-02-19T05:35:21.088Z,22.27
2024-02-19T05:37:52.544Z,26.77
2024-02-19T05:40:22.713Z,23.25
2024-02-19T05:42:55.232Z,21.83
2024-02-19T05:45:27.782Z,23.98
2024-02-19T05:48:01.344Z,24.27
2024-02-19T05:50:32.346Z,24.45
2024-02-19T05:53:03.130Z,22.67
2024-02-19T05:55:34.841Z,22.80
2024-02-19T05:58:06.196Z,22.67
2024-02-19T06:00:38.349Z,21.65
2024-02-19T06:03:09.947Z,22.57
2024-02-19T06:05:41.360Z,23.33
2024-02-19T06:08:12.123Z,23.58
2024-02-19T06:10:46.742Z,26.42
2024-02-19T06:13:17.768Z,22.38
2024-02-19T06:15:49.691Z,25.05
2024-02-19T06:18:20.732Z,25.85
2024-02-19T06:20:51.126Z,24.85
2024-02-19T06:23:21.844Z,18.95
2024-02-19T06:25:51.996Z,27.42
2024-02-19T06:28:22.731Z,22.83
2024-02-19T06:30:54.692Z,25.92
2024-02-19T06:33:25.457Z,22.73
2024-02-19T06:35:56.125Z,19.35
2024-02-19T06:38:26.754Z,20.38
2024-02-19T06:40:58.281Z,18.52
2024-02-19T06:43:28.906Z,23.42
2024-02-19T06:46:00.680Z,21.05
2024-02-19T06:48:31.608Z,18.05
2024-02-19T06:51:02.745Z,16.17
2024-02-19T06:53:33.157Z,15.25
2024-02-19T06:56:03.897Z,16.25
2024-02-19T06:58:34.656Z,14.98
2024-02-19T07:01:06.921Z,15.32
2024-02-19T07:03:38.193Z,14.07
2024-02-19T07:06:11.253Z,12.15
2024-02-19T07:08:43.438Z,15.30
2024-02-19T07:11:13.948Z,14.13
2024-02-19T07:13:45.900Z,12.07
2024-02-19T07:16:17.938Z,11.65
2024-02-19T07:18:49.202Z,12.90
2024-02-19T07:21:20.067Z,13.50
2024-02-19T07:23:50.837Z,16.38
2024-02-19T07:26:21.291Z,13.98
2024-02-19T07:28:52.033Z,15.05
2024-02-19T07:31:24.042Z,11.77
2024-02-19T07:33:56.639Z,11.80
2024-02-19T07:36:27.053Z,12.52
2024-02-19T07:38:57.671Z,6.10
2024-02-19T07:41:28.043Z,10.73
2024-02-19T07:43:58.862Z,4.63
2024-02-19T07:46:30.663Z,6.57
2024-02-19T07:49:01.729Z,5.03
2024-02-19T07:51:32.266Z,6.43
2024-02-19T07:54:02.951Z,5.72
2024-02-19T07:56:33.323Z,4.55
2024-02-19T07:59:03.785Z,5.13
2024-02-19T08:01:35.540Z,4.82
2024-02-19T08:04:06.865Z,5.05
2024-02-19T08:06:37.605Z,6.15
2024-02-19T08:09:08.445Z,3.88
2024-02-19T08:11:38.767Z,3.58
2024-02-19T08:14:09.649Z,8.27
2024-02-19T08:16:44.828Z,3.95
2024-02-19T08:19:16.729Z,5.75
2024-02-19T08:21:47.170Z,6.63
2024-02-19T08:24:18.537Z,6.07
2024-02-19T08:26:48.945Z,4.25
2024-02-19T08:29:20.636Z,3.20
2024-02-19T08:31:52.739Z,2.17
2024-02-19T08:34:24.672Z,2.78
2024-02-19T08:36:55.443Z,3.97
2024-02-19T08:39:26.257Z,3.40
2024-02-19T08:41:59.222Z,3.60
2024-02-19T08:44:29.929Z,3.47
2024-02-19T08:47:08.785Z,4.70
2024-02-19T08:49:39.685Z,4.38
2024-02-19T08:52:10.156Z,4.35
2024-02-19T08:54:40.837Z,4.30
2024-02-19T08:57:11.194Z,3.17
2024-02-19T08:59:45.924Z,3.92
2024-02-19T09:02:18.698Z,3.10
2024-02-19T09:04:50.110Z,2.17
2024-02-19T09:07:20.913Z,4.93
2024-02-19T09:09:51.823Z,2.95
2024-02-19T09:12:24.585Z,2.47
2024-02-19T09:14:56.571Z,3.03
2024-02-19T09:17:28.314Z,2.13
2024-02-19T09:19:59.146Z,2.25
2024-02-19T09:22:29.589Z,0.88
2024-02-19T09:25:00.479Z,2.47
2024-02-19T09:27:30.835Z,0.77
2024-02-19T09:30:02.084Z,0.80
2024-02-19T09:32:34.019Z,1.00
2024-02-19T09:35:05.105Z,0.95
2024-02-19T09:37:35.300Z,0.70
2024-02-19T09:40:08.189Z,3.20
2024-02-19T09:42:38.838Z,0.65
2024-02-19T09:45:12.403Z,1.20
2024-02-19T09:47:46.919Z,0.70
2024-02-19T09:50:19.259Z,0.93
2024-02-19T09:52:49.984Z,0.60
2024-02-19T09:55:20.844Z,0.80
2024-02-19T09:57:51.337Z,1.08
2024-02-19T10:00:23.032Z,1.00
2024-02-19T10:02:55.741Z,0.50
2024-02-19T10:05:26.840Z,0.85
2024-02-19T10:08:05.527Z,1.02
2024-02-19T10:10:39.563Z,0.65
2024-02-19T10:13:14.123Z,1.02
2024-02-19T10:15:44.896Z,1.20
2024-02-19T10:18:19.653Z,1.27
2024-02-19T10:20:52.135Z,0.77
2024-02-19T10:23:24.370Z,0.50
2024-02-19T10:25:56.491Z,1.10
2024-02-19T10:28:29.451Z,0.75
2024-02-19T10:31:00.133Z,0.82
2024-02-19T10:33:35.967Z,1.30
2024-02-19T10:36:08.033Z,0.88
2024-02-19T10:38:38.293Z,0.68
2024-02-19T10:41:09.332Z,0.95
2024-02-19T10:43:39.904Z,0.73
2024-02-19T10:46:11.650Z,0.43
2024-02-19T10:48:43.858Z,0.70
2024-02-19T10:51:19.047Z,0.30
2024-02-19T10:53:49.278Z,0.20
2024-02-19T10:56:21.425Z,0.25
2024-02-19T10:58:55.715Z,0.15
2024-02-19T11:01:38.300Z,0.88
2024-02-19T11:04:22.087Z,0.52
2024-02-19T11:06:55.799Z,0.00
2024-02-19T11:09:33.265Z,0.05
2024-02-19T11:12:06.837Z,0.05
2024-02-19T11:14:39.014Z,0.25
2024-02-19T11:17:11.820Z,0.63
2024-02-19T11:19:43.872Z,0.20
2024-02-19T11:22:23.345Z,0.30
2024-02-19T11:24:53.977Z,0.38
2024-02-19T11:27:24.876Z,0.00
2024-02-19T11:30:01.440Z,0.00
2024-02-19T11:32:34.051Z,0.28
2024-02-19T11:35:15.948Z,0.98
2024-02-19T11:37:46.877Z,0.00
2024-02-19T11:40:17.332Z,0.20
2024-02-19T11:42:48.585Z,0.20
2024-02-19T11:45:20.537Z,0.17
2024-02-19T11:47:51.357Z,0.85
2024-02-19T11:50:26.551Z,0.28
2024-02-19T11:52:59.683Z,0.43
2024-02-19T11:55:31.777Z,0.40
2024-02-19T11:58:03.551Z,1.20
2024-02-19T12:00:34.874Z,0.80
2024-02-19T12:03:06.587Z,1.08
2024-02-19T12:05:42.526Z,2.08
2024-02-19T12:08:13.808Z,1.30
2024-02-19T12:10:44.366Z,1.17
2024-02-19T12:13:15.108Z,1.27
2024-02-19T12:15:52.237Z,0.90
2024-02-19T12:18:23.205Z,4.45
2024-02-19T12:20:55.321Z,2.35
2024-02-19T12:23:26.329Z,1.17
2024-02-19T12:25:56.621Z,2.85
2024-02-19T12:28:27.304Z,0.65
2024-02-19T12:30:57.622Z,1.17
2024-02-19T12:33:28.746Z,1.52
2024-02-19T12:36:00.733Z,0.80
2024-02-19T12:38:31.554Z,1.17
2024-02-19T12:41:02.138Z,1.23
2024-02-19T12:43:32.975Z,1.00
2024-02-19T12:46:07.267Z,1.05
2024-02-19T12:48:41.042Z,0.65
2024-02-19T12:51:16.502Z,0.70
2024-02-19T12:53:47.347Z,0.60
2024-02-19T12:56:17.650Z,0.57
2024-02-19T12:58:48.387Z,0.68
2024-02-19T13:01:27.066Z,3.25
2024-02-19T13:04:03.305Z,0.52
2024-02-19T13:06:36.090Z,1.15
2024-02-19T13:09:07.365Z,1.75
2024-02-19T13:11:39.055Z,1.50
2024-02-19T13:14:10.031Z,3.00
2024-02-19T13:16:40.760Z,5.30
2024-02-19T13:19:11.657Z,2.35
2024-02-19T13:21:43.419Z,0.90
2024-02-19T13:24:14.201Z,1.92
2024-02-19T13:26:44.625Z,0.98
2024-02-19T13:29:15.964Z,1.80
2024-02-19T13:31:46.213Z,0.90
2024-02-19T13:34:19.115Z,0.88
2024-02-19T13:36:52.802Z,1.02
2024-02-19T13:39:24.625Z,0.57
2024-02-19T13:41:55.153Z,2.08
2024-02-19T13:44:25.900Z,1.25
2024-02-19T13:46:56.461Z,0.82
2024-02-19T13:49:27.100Z,4.38
2024-02-19T13:51:58.893Z,4.05
2024-02-19T13:54:29.741Z,0.70
2024-02-19T13:57:03.752Z,1.52
2024-02-19T13:59:34.256Z,0.17
2024-02-19T14:02:06.313Z,1.45
2024-02-19T14:04:37.318Z,3.15
2024-02-19T14:07:10.761Z,0.93
2024-02-19T14:09:42.887Z,0.88
2024-02-19T14:12:14.014Z,0.28
2024-02-19T14:14:44.664Z,0.32
2024-02-19T14:17:15.089Z,0.75
2024-02-19T14:19:46.609Z,1.20
2024-02-19T14:22:18.509Z,0.60
2024-02-19T14:24:49.359Z,0.75
2024-02-19T14:27:19.737Z,0.90
2024-02-19T14:29:50.556Z,0.30
2024-02-19T14:32:21.757Z,1.70
2024-02-19T14:34:53.062Z,0.25
2024-02-19T14:37:25.161Z,1.00
2024-02-19T14:39:56.199Z,0.88
2024-02-19T14:42:26.511Z,0.43
2024-02-19T14:44:57.281Z,2.35
2024-02-19T14:47:27.807Z,0.65
2024-02-19T14:49:59.172Z,2.33
2024-02-19T14:52:34.407Z,2.65
2024-02-19T14:55:11.349Z,0.82
2024-02-19T14:57:46.126Z,0.77
2024-02-19T15:00:22.693Z,1.35
2024-02-19T15:02:56.163Z,0.60
2024-02-19T15:05:29.121Z,1.10
2024-02-19T15:08:02.470Z,1.15
2024-02-19T15:10:35.142Z,4.47
2024-02-19T15:13:06.499Z,0.88
2024-02-19T15:15:37.588Z,0.68
2024-02-19T15:18:12.210Z,3.55
2024-02-19T15:20:46.310Z,1.23
2024-02-19T15:23:19.250Z,1.15
2024-02-19T15:25:52.837Z,1.95
2024-02-19T15:28:24.720Z,2.70
2024-02-19T15:30:56.233Z,0.60
2024-02-19T15:33:28.113Z,2.30
2024-02-19T15:36:03.465Z,2.40
2024-02-19T15:38:35.777Z,1.63
2024-02-19T15:41:11.256Z,1.30
2024-02-19T15:43:42.481Z,1.10
2024-02-19T15:46:15.472Z,1.42
2024-02-19T15:48:45.842Z,1.10
2024-02-19T15:51:20.511Z,4.45
2024-02-19T15:53:54.547Z,1.45
2024-02-19T15:56:27.145Z,2.35
2024-02-19T15:59:00.584Z,1.50
2024-02-19T16:01:32.008Z,0.82
2024-02-19T16:04:02.610Z,2.47
2024-02-19T16:06:33.866Z,1.25
2024-02-19T16:09:07.366Z,1.15
2024-02-19T16:11:38.978Z,0.98
2024-02-19T16:14:09.913Z,2.45
2024-02-19T16:16:41.137Z,2.45
2024-02-19T16:19:12.912Z,3.00
2024-02-19T16:21:45.595Z,0.60
2024-02-19T16:24:20.350Z,0.85
2024-02-19T16:26:52.635Z,0.85
2024-02-19T16:29:27.546Z,0.88
2024-02-19T16:32:02.170Z,0.65
2024-02-19T16:34:33.034Z,3.13
2024-02-19T16:37:05.814Z,1.98
2024-02-19T16:39:37.879Z,1.40
2024-02-19T16:42:10.299Z,1.03
2024-02-19T16:44:41.971Z,1.40
2024-02-19T16:47:13.481Z,1.88
2024-02-19T16:49:45.127Z,2.30
2024-02-19T16:52:17.299Z,2.58
2024-02-19T16:54:51.118Z,2.63
2024-02-19T16:57:23.013Z,2.65
2024-02-19T16:59:53.458Z,1.77
2024-02-19T17:02:26.004Z,1.13
2024-02-19T17:05:00.073Z,2.00
2024-02-19T17:07:34.017Z,2.00
2024-02-19T17:10:09.530Z,1.73
2024-02-19T17:12:45.178Z,2.63
2024-02-19T17:15:19.700Z,2.55
2024-02-19T17:17:52.667Z,3.35
2024-02-19T17:20:23.844Z,1.25
2024-02-19T17:22:56.438Z,1.85
2024-02-19T17:25:34.619Z,2.83
2024-02-19T17:28:07.598Z,3.13
2024-02-19T17:30:39.045Z,2.38
2024-02-19T17:33:12.869Z,2.53
2024-02-19T17:35:45.957Z,3.78
2024-02-19T17:38:17.280Z,4.05
2024-02-19T17:40:49.551Z,6.38
2024-02-19T17:43:21.082Z,3.30
2024-02-19T17:45:52.594Z,4.45
2024-02-19T17:48:28.915Z,5.38
2024-02-19T17:51:00.595Z,4.95
2024-02-19T17:53:33.338Z,3.25
2024-02-19T17:56:08.888Z,3.50
2024-02-19T17:58:41.140Z,3.92
2024-02-19T18:01:13.497Z,4.00
2024-02-19T18:03:54.014Z,3.67
2024-02-19T18:06:25.331Z,4.00
2024-02-19T18:08:59.360Z,3.38
2024-02-19T18:11:31.982Z,4.55
2024-02-19T18:17:04.554Z,6.18
2024-02-19T18:19:42.641Z,4.78
2024-02-19T18:22:14.142Z,4.45
2024-02-19T18:24:48.726Z,6.93
2024-02-19T18:27:22.431Z,5.65
2024-02-19T18:29:56.274Z,6.60
2024-02-19T18:32:29.589Z,6.10
2024-02-19T18:35:04.029Z,7.07
2024-02-19T18:37:40.451Z,5.88
2024-02-19T18:40:12.293Z,4.53
2024-02-19T18:42:46.279Z,6.07
2024-02-19T18:45:17.908Z,7.22
2024-02-19T18:47:49.401Z,5.20
2024-02-19T18:50:21.298Z,5.93
2024-02-19T18:52:55.925Z,3.92
2024-02-19T18:55:27.881Z,4.55
2024-02-19T18:58:02.555Z,4.05
2024-02-19T19:00:34.211Z,7.63
2024-02-19T19:03:05.753Z,6.53
2024-02-19T19:05:37.062Z,6.30
2024-02-19T19:08:14.257Z,5.03
2024-02-19T19:10:48.652Z,3.88
2024-02-19T19:13:22.462Z,5.38
2024-02-19T19:15:58.831Z,5.13
2024-02-19T19:18:29.318Z,7.30
2024-02-19T19:21:02.612Z,4.45
2024-02-19T19:23:34.162Z,6.93
2024-02-19T19:26:10.083Z,5.88
2024-02-19T19:28:44.116Z,9.30
2024-02-19T19:33:48.668Z,5.40
2024-02-19T19:36:19.898Z,7.88
2024-02-19T19:38:51.440Z,7.93
2024-02-19T19:41:22.418Z,4.57
2024-02-19T19:43:54.345Z,4.45
2024-02-19T19:46:25.582Z,5.35
2024-02-19T19:48:57.850Z,6.80
2024-02-19T19:51:30.051Z,6.30
2024-02-19T19:54:04.599Z,6.72
2024-02-19T19:56:41.949Z,4.38
2024-02-19T19:59:16.476Z,3.65
2024-02-19T20:01:48.957Z,3.90
2024-02-19T20:04:21.127Z,3.85
2024-02-19T20:06:52.922Z,4.85
2024-02-19T20:09:24.841Z,5.78
2024-02-19T20:11:58.161Z,3.30
2024-02-19T20:14:32.047Z,2.13
2024-02-19T20:17:04.868Z,1.95
2024-02-19T20:19:36.112Z,3.55
2024-02-19T20:22:08.345Z,6.57
2024-02-19T20:24:41.824Z,4.43
2024-02-19T20:27:18.278Z,3.17
2024-02-19T20:29:54.323Z,4.68
2024-02-19T20:32:34.922Z,5.30
2024-02-19T20:35:09.311Z,2.53
2024-02-19T20:37:41.045Z,2.28
2024-02-19T20:40:15.510Z,3.05
2024-02-19T20:42:54.458Z,6.57
2024-02-19T20:45:29.624Z,2.83
2024-02-19T20:48:01.336Z,6.93
2024-02-19T20:50:32.690Z,2.05
2024-02-19T20:53:03.827Z,3.00
2024-02-19T20:55:35.866Z,5.18
2024-02-19T20:58:08.000Z,2.25
2024-02-19T21:00:43.100Z,1.63
2024-02-19T21:03:14.424Z,7.35
2024-02-19T21:05:46.633Z,5.55
2024-02-19T21:08:18.214Z,4.50
2024-02-19T21:10:49.587Z,2.85
2024-02-19T21:13:22.303Z,2.63
2024-02-19T21:15:55.885Z,3.85
2024-02-19T21:18:34.619Z,2.58
2024-02-19T21:21:26.246Z,2.88
2024-02-19T21:24:01.229Z,3.42
2024-02-19T21:26:32.231Z,5.57
2024-02-19T21:29:03.544Z,4.28
2024-02-19T21:31:35.422Z,4.38
2024-02-19T21:34:09.697Z,7.20
2024-02-19T21:36:42.752Z,8.23
2024-02-19T21:39:13.472Z,7.05
2024-02-19T21:41:45.117Z,6.45
2024-02-19T21:44:17.031Z,4.00
2024-02-19T21:46:51.088Z,6.80
2024-02-19T21:49:24.997Z,6.35
2024-02-19T21:51:55.870Z,5.13
2024-02-19T21:54:26.590Z,5.10
2024-02-19T21:56:58.356Z,8.32
2024-02-19T21:59:28.834Z,3.47
2024-02-19T22:02:00.829Z,4.85
2024-02-19T22:04:31.504Z,5.90
2024-02-19T22:07:01.963Z,5.07
2024-02-19T22:09:33.236Z,5.10
2024-02-19T22:12:04.886Z,2.03
2024-02-19T22:14:35.746Z,3.10
2024-02-19T22:17:07.594Z,3.00
2024-02-19T22:19:39.138Z,3.30
2024-02-19T22:22:09.930Z,3.53
2024-02-19T22:24:41.047Z,6.32
2024-02-19T22:27:11.663Z,2.83
2024-02-19T22:29:42.179Z,6.00
2024-02-19T22:32:13.777Z,4.47
2024-02-19T22:34:46.741Z,3.67
2024-02-19T22:37:18.306Z,4.55
2024-02-19T22:39:51.243Z,3.38
2024-02-19T22:42:21.760Z,6.03
2024-02-19T22:44:52.342Z,7.55
2024-02-19T22:47:24.253Z,6.50
2024-02-19T22:49:55.411Z,5.05
2024-02-19T22:52:25.781Z,4.32
2024-02-19T22:54:56.914Z,8.85
2024-02-19T22:57:27.451Z,6.00
2024-02-19T22:59:57.852Z,6.65
2024-02-19T23:02:29.357Z,7.25
2024-02-19T23:05:00.005Z,5.55
2024-02-19T23:07:30.267Z,4.95
2024-02-19T23:10:02.050Z,5.68
2024-02-19T23:12:32.392Z,7.93
2024-02-19T23:15:04.445Z,7.10
2024-02-19T23:17:36.144Z,5.63
2024-02-19T23:20:09.803Z,7.80
2024-02-19T23:22:41.255Z,6.72
2024-02-19T23:25:12.333Z,5.10
2024-02-19T23:27:42.661Z,8.00
2024-02-19T23:30:14.522Z,5.93
2024-02-19T23:32:46.282Z,8.05
2024-02-19T23:35:17.150Z,6.20
2024-02-19T23:37:47.419Z,6.63
2024-02-19T23:40:19.549Z,9.85
2024-02-19T23:42:50.183Z,6.03
2024-02-19T23:45:21.444Z,6.95
2024-02-19T23:47:53.613Z,9.68
2024-02-19T23:50:24.417Z,6.40
2024-02-19T23:52:54.973Z,6.13
2024-02-19T23:55:25.649Z,6.82
2024-02-19T23:57:55.984Z,7.32
